Time;durP1;ratioP1;P1;durP2;ratioP2;P2;SDS_P1;SDS_P2;PMS_P1;PMS_P2;Temp;Humidity;BMP_temperature;BMP_pressure;BME280_temperature;BME280_humidity;BME280_pressure;Samples;Min_cycle;Max_cycle;Signal;HPM_P1;HPM_P2
2022/12/10 00:00:00;;;;;;;;;;;;;;;16.38;46.97;97487.53;4515813;31;33402;-87
2022/12/10 00:02:29;;;;;;;;;;;;;;;16.22;47.34;97487.28;4515562;31;35060;-90
2022/12/10 00:04:56;;;;;;;;;;;;;;;15.94;47.97;97476.94;4515356;31;35124;-88
2022/12/10 00:07:23;;;;;;;;;;;;;;;16.03;47.89;97479.25;4514921;31;34225;-92
2022/12/10 00:09:51;;;;;;;;;;;;;;;16.30;47.45;97483.44;4512538;31;33363;-87
2022/12/10 00:12:18;;;;;;;;;;;;;;;16.54;47.31;97484.28;4514196;31;33944;-90
2022/12/10 00:14:45;;;;;;;;;;;;;;;15.93;48.69;97491.78;4515378;31;34442;-90
2022/12/10 00:17:12;;;;;;;;;;;;;;;15.90;48.78;97502.31;4515586;31;34213;-91
2022/12/10 00:19:40;;;;;;;;;;;;;;;16.21;48.18;97501.22;4515521;31;33624;-91
2022/12/10 00:22:07;;;;;;;;;;;;;;;15.97;48.60;97508.19;4523203;31;34955;-91
2022/12/10 00:24:34;;;;;;;;;;;;;;;16.10;48.24;97506.00;4520460;31;35170;-90
2022/12/10 00:27:02;;;;;;;;;;;;;;;15.46;50.03;97509.91;4514932;31;33918;-89
2022/12/10 00:29:29;;;;;;;;;;;;;;;15.67;50.56;97512.72;4513269;31;33513;-90
2022/12/10 00:31:56;;;;;;;;;;;;;;;14.83;53.84;97526.72;4499402;31;33748;-90
2022/12/10 00:34:23;;;;;;;;;;;;;;;15.19;52.87;97529.06;4504007;31;35263;-87
2022/12/10 00:36:50;;;;;;;;;;;;;;;14.34;55.03;97531.59;4515333;31;33955;-90
2022/12/10 00:39:19;;;;;;;;;;;;;;;13.78;56.92;97540.94;4529449;31;33368;-91
2022/12/10 00:41:46;;;;;;;;;;;;;;;11.91;62.91;97547.69;4499068;31;34125;-88
2022/12/10 00:44:13;;;;;;;;;;;;;;;12.96;59.43;97536.88;4497850;31;34171;-90
2022/12/10 00:46:41;;;;;;;;;;;;;;;13.51;57.67;97543.38;4509764;31;34398;-89
2022/12/10 00:49:09;;;;;;;;;;;;;;;13.24;58.18;97541.44;4513875;31;33398;-86
2022/12/10 00:51:36;;;;;;;;;;;;;;;14.06;55.80;97536.72;4512824;31;34273;-90
2022/12/10 00:54:03;;;;;;;;;;;;;;;13.61;56.44;97542.25;4513752;31;34162;-90
2022/12/10 00:56:32;;;;;;;;;;;;;;;14.63;53.65;97529.94;4525588;31;34614;-91
2022/12/10 00:58:59;;;;;;;;;;;;;;;14.00;55.06;97549.91;4531069;31;32846;-90
2022/12/10 01:01:28;;;;;;;;;;;;;;;13.97;55.24;97544.78;4513883;31;34964;-89
2022/12/10 01:03:56;;;;;;;;;;;;;;;13.63;56.15;97558.66;4514364;31;34463;-90
2022/12/10 01:06:25;;;;;;;;;;;;;;;12.15;60.90;97560.19;4514780;31;33998;-89
2022/12/10 01:08:53;;;;;;;;;;;;;;;13.32;57.49;97565.53;4514683;31;34265;-89
2022/12/10 01:11:20;;;;;;;;;;;;;;;14.00;54.99;97555.13;4514370;31;33639;-90
2022/12/10 01:13:48;;;;;;;;;;;;;;;13.82;55.43;97563.41;4513510;31;34476;-90
2022/12/10 01:16:17;;;;;;;;;;;;;;;13.65;55.99;97560.41;4514694;31;33809;-89
2022/12/10 01:18:44;;;;;;;;;;;;;;;13.56;56.39;97570.16;4514744;31;33200;-91
2022/12/10 01:21:12;;;;;;;;;;;;;;;12.80;58.52;97564.06;4516553;31;34295;-89
2022/12/10 01:23:41;;;;;;;;;;;;;;;13.12;57.62;97572.03;4515740;31;35283;-91
2022/12/10 01:26:10;;;;;;;;;;;;;;;13.34;56.90;97568.97;4513050;31;34800;-90
2022/12/10 01:28:38;;;;;;;;;;;;;;;12.87;58.28;97558.72;4514339;31;34208;-86
2022/12/10 01:31:07;;;;;;;;;;;;;;;12.44;59.43;97563.97;4509780;31;33964;-88
2022/12/10 01:33:35;;;;;;;;;;;;;;;13.10;57.71;97581.59;4514465;31;34487;-88
2022/12/10 01:36:04;;;;;;;;;;;;;;;13.80;55.41;97565.22;4507969;31;35204;-88
2022/12/10 01:38:31;;;;;;;;;;;;;;;13.25;56.82;97567.41;4502969;31;34487;-89
2022/12/10 01:40:59;;;;;;;;;;;;;;;12.92;58.08;97571.63;4512541;31;33727;-89
2022/12/10 01:43:26;;;;;;;;;;;;;;;12.86;58.20;97570.00;4513367;31;33850;-87
2022/12/10 01:45:53;;;;;;;;;;;;;;;13.52;56.05;97565.91;4502205;31;35239;-89
2022/12/10 01:48:21;;;;;;;;;;;;;;;13.24;56.73;97567.47;4507941;31;33907;-89
2022/12/10 01:50:48;;;;;;;;;;;;;;;13.40;56.53;97574.00;4514127;31;35005;-91
2022/12/10 01:53:15;;;;;;;;;;;;;;;12.88;57.96;97585.59;4514269;31;33928;-89
2022/12/10 01:55:47;;;;;;;;;;;;;;;13.57;56.27;97586.63;4511650;31;33989;-90
2022/12/10 01:58:18;;;;;;;;;;;;;;;13.35;56.73;97588.88;4513796;31;33175;-89
2022/12/10 02:01:15;;;;;;;;;;;;;;;13.00;57.00;97592.28;4504192;31;33840;-90
2022/12/10 02:03:45;;;;;;;;;;;;;;;12.58;58.24;97595.75;4499878;31;35199;-90
2022/12/10 02:06:30;;;;;;;;;;;;;;;13.41;56.05;97587.88;4514196;31;33878;-90
2022/12/10 02:09:16;;;;;;;;;;;;;;;13.08;56.66;97593.81;4513580;31;33600;-89
2022/12/10 02:11:55;;;;;;;;;;;;;;;12.34;59.18;97604.03;4514402;31;35107;-91
2022/12/10 02:14:27;;;;;;;;;;;;;;;12.03;59.35;97607.19;4514388;31;34154;-89
2022/12/10 02:16:56;;;;;;;;;;;;;;;12.85;57.01;97606.47;4515985;31;34270;-89
2022/12/10 02:19:35;;;;;;;;;;;;;;;12.16;59.11;97616.50;4506256;31;33321;-90
2022/12/10 02:22:03;;;;;;;;;;;;;;;12.52;57.94;97608.00;4515363;31;34030;-88
2022/12/10 02:24:32;;;;;;;;;;;;;;;11.08;62.20;97611.28;4511536;31;34944;-89
2022/12/10 02:27:08;;;;;;;;;;;;;;;11.17;61.18;97606.00;4502977;31;34099;-90
2022/12/10 02:29:36;;;;;;;;;;;;;;;11.69;59.55;97612.94;4516607;31;33734;-89
2022/12/10 02:32:17;;;;;;;;;;;;;;;11.40;60.11;97599.56;4514978;31;34153;-91
2022/12/10 02:34:50;;;;;;;;;;;;;;;11.98;58.76;97600.37;4515289;31;35336;-92
2022/12/10 02:37:18;;;;;;;;;;;;;;;11.43;59.72;97596.94;4501801;31;34024;-91
2022/12/10 02:39:48;;;;;;;;;;;;;;;11.06;60.88;97596.62;4502838;31;34449;-84
2022/12/10 02:42:16;;;;;;;;;;;;;;;10.71;61.87;97598.81;4501889;31;34863;-90
2022/12/10 02:44:44;;;;;;;;;;;;;;;11.96;58.29;97597.78;4514889;31;34341;-88
2022/12/10 02:47:12;;;;;;;;;;;;;;;11.27;60.03;97590.28;4503383;31;34682;-90
2022/12/10 02:49:40;;;;;;;;;;;;;;;11.50;59.44;97593.34;4502002;31;33580;-91
2022/12/10 02:52:09;;;;;;;;;;;;;;;11.48;58.88;97583.88;4501462;31;34219;-87
2022/12/10 02:54:39;;;;;;;;;;;;;;;11.43;59.06;97592.59;4499890;31;34105;-88
2022/12/10 02:57:15;;;;;;;;;;;;;;;11.95;57.64;97598.69;4500491;31;34880;-92
2022/12/10 02:59:47;;;;;;;;;;;;;;;11.56;58.80;97598.47;4485853;31;33079;-90
2022/12/10 03:02:23;;;;;;;;;;;;;;;9.81;64.36;97602.41;4499784;31;34960;-87
2022/12/10 03:04:51;;;;;;;;;;;;;;;11.06;60.61;97594.91;4514745;31;34460;-90
2022/12/10 03:07:22;;;;;;;;;;;;;;;11.89;57.96;97603.97;4515893;31;34939;-90
2022/12/10 03:09:51;;;;;;;;;;;;;;;11.81;58.14;97622.25;4516172;31;31784;-91
2022/12/10 03:12:19;;;;;;;;;;;;;;;10.89;59.81;97625.38;4502118;31;33201;-90
2022/12/10 03:14:46;;;;;;;;;;;;;;;11.41;58.87;97622.06;4515674;31;34186;-91
2022/12/10 03:17:13;;;;;;;;;;;;;;;11.68;57.95;97628.56;4514395;31;34434;-91
2022/12/10 03:19:42;;;;;;;;;;;;;;;12.01;56.83;97632.34;4514966;31;33244;-85
2022/12/10 03:22:09;;;;;;;;;;;;;;;11.67;57.43;97630.28;4514754;31;34552;-90
2022/12/10 03:24:36;;;;;;;;;;;;;;;11.39;58.17;97632.44;4514090;31;33964;-91
2022/12/10 03:27:04;;;;;;;;;;;;;;;11.83;56.55;97627.44;4511723;31;34256;-89
2022/12/10 03:29:33;;;;;;;;;;;;;;;10.23;61.37;97636.50;4515774;31;33691;-91
2022/12/10 03:32:00;;;;;;;;;;;;;;;11.06;58.99;97626.03;4515963;31;34048;-91
2022/12/10 03:34:28;;;;;;;;;;;;;;;11.03;58.61;97620.88;4515600;31;34217;-86
2022/12/10 03:36:55;;;;;;;;;;;;;;;10.90;59.24;97627.09;4506140;31;33979;-87
2022/12/10 03:39:22;;;;;;;;;;;;;;;11.29;57.93;97625.69;4509858;31;33260;-85
2022/12/10 03:41:50;;;;;;;;;;;;;;;11.36;57.27;97623.84;4515242;31;34181;-91
2022/12/10 03:44:27;;;;;;;;;;;;;;;10.30;59.71;97624.38;4514448;31;34976;-91
2022/12/10 03:46:54;;;;;;;;;;;;;;;10.54;59.62;97629.28;4514729;31;33863;-86
2022/12/10 03:49:22;;;;;;;;;;;;;;;9.98;61.38;97643.66;4515487;31;33343;-87
2022/12/10 03:51:49;;;;;;;;;;;;;;;10.20;60.90;97633.94;4515549;31;34116;-89
2022/12/10 03:54:16;;;;;;;;;;;;;;;10.05;61.20;97642.72;4515310;31;34144;-86
2022/12/10 03:56:43;;;;;;;;;;;;;;;10.64;59.61;97646.41;4515057;31;34291;-91
2022/12/10 03:59:11;;;;;;;;;;;;;;;9.50;63.47;97646.63;4515224;31;33524;-89
2022/12/10 04:01:38;;;;;;;;;;;;;;;9.72;62.75;97641.28;4515369;31;34083;-86
2022/12/10 04:04:06;;;;;;;;;;;;;;;10.50;60.15;97637.97;4515349;31;34380;-93
2022/12/10 04:06:33;;;;;;;;;;;;;;;9.95;61.39;97648.84;4514959;31;34482;-91
2022/12/10 04:09:00;;;;;;;;;;;;;;;10.16;61.25;97659.00;4526861;31;33709;-86
2022/12/10 04:11:28;;;;;;;;;;;;;;;9.49;63.54;97665.59;4531097;31;35008;-89
2022/12/10 04:16:41;;;;;;;;;;;;;;;10.95;58.98;97666.81;4518752;31;34242;-89
2022/12/10 04:19:10;;;;;;;;;;;;;;;10.73;59.47;97671.41;4515204;31;33514;-89
2022/12/10 04:27:13;;;;;;;;;;;;;;;10.70;59.31;97667.09;4514585;31;34501;-91
2022/12/10 04:29:41;;;;;;;;;;;;;;;9.26;64.26;97673.53;4514229;31;33618;-90
2022/12/10 04:32:08;;;;;;;;;;;;;;;10.69;59.62;97664.53;4515173;31;34234;-85
2022/12/10 04:34:35;;;;;;;;;;;;;;;10.84;58.72;97669.53;4515259;31;34320;-89
2022/12/10 04:37:03;;;;;;;;;;;;;;;10.76;59.31;97665.28;4515133;31;33834;-88
2022/12/10 04:39:30;;;;;;;;;;;;;;;10.20;60.57;97665.88;4515266;31;33164;-89
2022/12/10 04:41:57;;;;;;;;;;;;;;;11.06;58.18;97649.38;4515250;31;33755;-88
2022/12/10 04:44:25;;;;;;;;;;;;;;;10.43;59.38;97652.72;4515419;31;33898;-92
2022/12/10 04:46:52;;;;;;;;;;;;;;;9.86;61.52;97654.97;4515067;31;33916;-85
2022/12/10 04:49:19;;;;;;;;;;;;;;;10.48;60.04;97653.50;4515280;31;33978;-89
2022/12/10 04:51:47;;;;;;;;;;;;;;;10.11;60.97;97653.00;4515228;31;34194;-90
2022/12/10 04:54:14;;;;;;;;;;;;;;;10.16;60.96;97646.06;4513707;31;35209;-89
2022/12/10 04:56:41;;;;;;;;;;;;;;;10.42;60.45;97645.84;4515040;31;34047;-87
2022/12/10 04:59:09;;;;;;;;;;;;;;;10.43;60.25;97636.31;4515050;31;32725;-87
2022/12/10 05:01:36;;;;;;;;;;;;;;;9.74;61.92;97639.56;4514998;31;34156;-86
2022/12/10 05:04:04;;;;;;;;;;;;;;;10.06;61.90;97647.03;4513395;31;34469;-90
2022/12/10 05:06:32;;;;;;;;;;;;;;;10.21;60.81;97657.22;4507089;31;33981;-85
2022/12/10 05:08:59;;;;;;;;;;;;;;;10.91;58.63;97666.00;4514934;31;32825;-90
2022/12/10 05:11:27;;;;;;;;;;;;;;;10.44;60.00;97669.97;4514743;31;34686;-92
2022/12/10 05:13:55;;;;;;;;;;;;;;;10.83;58.50;97670.38;4514028;31;34457;-91
2022/12/10 05:16:23;;;;;;;;;;;;;;;11.29;57.39;97668.91;4514032;31;34225;-86
2022/12/10 05:18:51;;;;;;;;;;;;;;;11.38;56.82;97674.00;4514954;31;33418;-92
2022/12/10 05:21:18;;;;;;;;;;;;;;;11.09;57.26;97685.63;4513461;31;34629;-86
2022/12/10 05:23:47;;;;;;;;;;;;;;;9.96;60.83;97686.81;4514622;31;35153;-87
2022/12/10 05:26:16;;;;;;;;;;;;;;;10.02;60.44;97697.13;4506496;31;34292;-90
2022/12/10 05:28:45;;;;;;;;;;;;;;;10.40;59.39;97701.97;4514673;31;33380;-87
2022/12/10 05:31:19;;;;;;;;;;;;;;;11.05;57.79;97694.31;4514341;31;34217;-85
2022/12/10 05:33:47;;;;;;;;;;;;;;;11.49;56.55;97690.28;4514700;31;34318;-89
2022/12/10 05:36:15;;;;;;;;;;;;;;;10.54;58.98;97696.66;4513991;31;34506;-92
2022/12/10 05:38:42;;;;;;;;;;;;;;;10.40;59.15;97698.53;4525969;31;33280;-90
2022/12/10 05:41:13;;;;;;;;;;;;;;;11.17;56.96;97699.37;4530405;31;35093;-92
2022/12/10 05:43:42;;;;;;;;;;;;;;;10.59;58.40;97715.59;4530636;31;34037;-91
2022/12/10 05:46:11;;;;;;;;;;;;;;;10.47;58.77;97710.53;4515428;31;35050;-92
2022/12/10 05:48:38;;;;;;;;;;;;;;;10.96;57.41;97704.81;4516742;31;34247;-93
2022/12/10 05:51:11;;;;;;;;;;;;;;;11.82;54.37;97704.47;4516402;31;34110;-93
2022/12/10 05:53:39;;;;;;;;;;;;;;;10.83;57.30;97708.41;4516912;31;34278;-92
2022/12/10 05:56:07;;;;;;;;;;;;;;;10.07;59.69;97705.69;4516059;31;34174;-92
2022/12/10 05:58:34;;;;;;;;;;;;;;;10.39;58.70;97702.00;4516282;31;33141;-91
2022/12/10 06:01:09;;;;;;;;;;;;;;;10.67;57.83;97700.81;4516667;31;34109;-91
2022/12/10 06:03:36;;;;;;;;;;;;;;;9.91;59.94;97712.72;4516471;31;34071;-90
2022/12/10 06:06:04;;;;;;;;;;;;;;;9.83;60.14;97717.13;4515856;31;33958;-90
2022/12/10 06:08:31;;;;;;;;;;;;;;;10.37;58.53;97717.53;4514734;31;33079;-88
2022/12/10 06:11:02;;;;;;;;;;;;;;;9.57;60.90;97713.84;4516404;31;34352;-91
2022/12/10 06:13:29;;;;;;;;;;;;;;;9.84;60.45;97720.56;4516055;31;34060;-91
2022/12/10 06:15:57;;;;;;;;;;;;;;;10.63;57.81;97727.66;4515634;31;34012;-89
2022/12/10 06:18:24;;;;;;;;;;;;;;;10.32;58.31;97719.31;4516209;31;33496;-90
2022/12/10 06:20:53;;;;;;;;;;;;;;;11.02;56.35;97719.44;4516528;31;34965;-89
2022/12/10 06:23:21;;;;;;;;;;;;;;;10.90;56.57;97720.44;4515872;31;34191;-87
2022/12/10 06:25:48;;;;;;;;;;;;;;;10.15;58.17;97724.63;4515638;31;34804;-87
2022/12/10 06:28:16;;;;;;;;;;;;;;;8.97;61.83;97740.00;4515969;31;33206;-90
2022/12/10 06:30:43;;;;;;;;;;;;;;;9.85;59.24;97737.81;4514680;31;34700;-91
2022/12/10 06:33:11;;;;;;;;;;;;;;;10.81;56.64;97730.94;4516132;31;34489;-86
2022/12/10 06:35:38;;;;;;;;;;;;;;;10.70;56.94;97738.81;4515529;31;34153;-93
2022/12/10 06:38:05;;;;;;;;;;;;;;;10.66;56.50;97743.16;4518867;31;33767;-89
2022/12/10 06:40:32;;;;;;;;;;;;;;;10.12;58.13;97744.53;4515949;31;34856;-82
2022/12/10 06:42:59;;;;;;;;;;;;;;;9.17;61.19;97739.97;4515987;31;35375;-90
2022/12/10 06:45:27;;;;;;;;;;;;;;;10.23;57.79;97750.47;4515183;31;34130;-85
2022/12/10 06:47:54;;;;;;;;;;;;;;;8.78;61.33;97765.91;4515443;31;34111;-86
2022/12/10 06:50:21;;;;;;;;;;;;;;;8.78;61.96;97767.66;4515954;31;34648;-86
2022/12/10 06:52:49;;;;;;;;;;;;;;;9.19;60.71;97759.75;4515990;31;35209;-88
2022/12/10 06:55:21;;;;;;;;;;;;;;;10.01;58.15;97760.13;4514143;31;34258;-86
2022/12/10 06:57:52;;;;;;;;;;;;;;;10.48;56.90;97753.72;4515524;31;34046;-91
2022/12/10 07:00:19;;;;;;;;;;;;;;;9.16;60.08;97749.41;4515300;31;35084;-84
2022/12/10 07:02:48;;;;;;;;;;;;;;;9.95;57.57;97731.69;4514660;31;34386;-89
2022/12/10 07:05:16;;;;;;;;;;;;;;;9.82;57.38;97730.94;4515986;31;33711;-86
2022/12/10 07:07:43;;;;;;;;;;;;;;;9.15;59.89;97732.19;4515852;31;33361;-92
2022/12/10 07:10:11;;;;;;;;;;;;;;;9.66;58.45;97735.38;4515452;31;34273;-88
2022/12/10 07:12:38;;;;;;;;;;;;;;;10.11;57.11;97741.03;4515670;31;34409;-86
2022/12/10 07:15:06;;;;;;;;;;;;;;;9.16;59.79;97738.22;4515872;31;34241;-92
2022/12/10 07:17:33;;;;;;;;;;;;;;;9.29;59.18;97741.62;4515651;31;32839;-85
2022/12/10 07:20:02;;;;;;;;;;;;;;;9.80;57.69;97732.66;4515583;31;35060;-88
2022/12/10 07:22:29;;;;;;;;;;;;;;;10.37;55.42;97725.31;4515990;31;35324;-93
2022/12/10 07:24:56;;;;;;;;;;;;;;;9.43;58.37;97721.69;4515594;31;34512;-91
2022/12/10 07:27:24;;;;;;;;;;;;;;;9.53;58.27;97723.34;4514991;31;34355;-92
2022/12/10 07:29:51;;;;;;;;;;;;;;;9.52;58.00;97703.53;4515235;31;34950;-86
2022/12/10 07:32:19;;;;;;;;;;;;;;;8.95;59.97;97705.56;4514486;31;34607;-91
2022/12/10 07:34:46;;;;;;;;;;;;;;;9.67;57.51;97694.81;4516163;31;34388;-91
2022/12/10 07:37:13;;;;;;;;;;;;;;;10.04;57.00;97703.16;4511557;31;34143;-91
2022/12/10 07:39:42;;;;;;;;;;;;;;;8.60;60.68;97711.72;4514762;31;33940;-90
2022/12/10 07:42:09;;;;;;;;;;;;;;;8.98;60.38;97718.50;4509726;31;34510;-89
2022/12/10 07:44:37;;;;;;;;;;;;;;;9.36;58.98;97728.66;4516387;31;35048;-91
2022/12/10 07:47:04;;;;;;;;;;;;;;;8.79;60.14;97740.97;4515343;31;33419;-84
2022/12/10 07:49:31;;;;;;;;;;;;;;;9.43;58.80;97743.28;4515239;31;34289;-89
2022/12/10 07:51:59;;;;;;;;;;;;;;;8.97;59.80;97758.97;4515124;31;35010;-86
2022/12/10 07:54:26;;;;;;;;;;;;;;;9.96;57.11;97747.22;4515034;31;34973;-85
2022/12/10 07:56:53;;;;;;;;;;;;;;;9.70;57.73;97747.41;4515180;31;33067;-90
2022/12/10 07:59:20;;;;;;;;;;;;;;;9.79;57.45;97749.06;4514456;31;33857;-86
2022/12/10 08:01:49;;;;;;;;;;;;;;;9.92;56.19;97758.44;4520009;31;33621;-88
2022/12/10 08:04:16;;;;;;;;;;;;;;;8.51;60.54;97758.22;4515829;31;34197;-88
2022/12/10 08:06:43;;;;;;;;;;;;;;;9.88;56.72;97745.56;4529346;31;33274;-89
2022/12/10 08:09:12;;;;;;;;;;;;;;;9.25;58.69;97744.22;4514980;31;34266;-88
2022/12/10 08:11:39;;;;;;;;;;;;;;;9.60;57.62;97737.97;4514865;31;34600;-91
2022/12/10 08:14:06;;;;;;;;;;;;;;;9.67;56.99;97746.56;4515352;31;35169;-84
2022/12/10 08:16:33;;;;;;;;;;;;;;;10.21;54.99;97740.09;4515262;31;34151;-90
2022/12/10 08:19:02;;;;;;;;;;;;;;;9.42;57.84;97732.91;4515243;31;33593;-86
2022/12/10 08:21:30;;;;;;;;;;;;;;;9.14;57.77;97727.88;4515158;31;34042;-86
2022/12/10 08:23:58;;;;;;;;;;;;;;;9.64;56.67;97731.91;4515276;31;34178;-92
2022/12/10 08:26:26;;;;;;;;;;;;;;;8.87;58.60;97736.63;4515263;31;33460;-86
2022/12/10 08:28:54;;;;;;;;;;;;;;;9.98;55.95;97727.34;4514665;31;34744;-91
2022/12/10 08:31:22;;;;;;;;;;;;;;;9.39;57.49;97725.16;4520475;31;34147;-87
2022/12/10 08:33:49;;;;;;;;;;;;;;;9.99;55.36;97725.62;4520188;31;34365;-89
2022/12/10 08:36:16;;;;;;;;;;;;;;;9.32;57.83;97733.81;4515211;31;34013;-86
2022/12/10 08:38:44;;;;;;;;;;;;;;;10.13;55.04;97731.56;4515193;31;34807;-89
2022/12/10 08:41:12;;;;;;;;;;;;;;;10.02;55.68;97727.34;4514899;31;35184;-89
2022/12/10 08:43:39;;;;;;;;;;;;;;;9.75;56.58;97735.28;4487517;31;867398;-90
2022/12/10 08:46:06;;;;;;;;;;;;;;;9.75;57.56;97747.38;4514809;31;33254;-85
2022/12/10 08:48:34;;;;;;;;;;;;;;;9.90;56.35;97749.84;4514750;31;34880;-85
2022/12/10 08:51:02;;;;;;;;;;;;;;;9.93;56.08;97749.84;4509475;31;34625;-87
2022/12/10 08:53:30;;;;;;;;;;;;;;;10.48;54.41;97748.53;4516457;31;34318;-90
2022/12/10 08:55:58;;;;;;;;;;;;;;;9.16;57.48;97754.59;4512930;31;31667;-92
2022/12/10 08:58:26;;;;;;;;;;;;;;;10.14;55.19;97758.31;4515090;31;34122;-87
2022/12/10 09:00:53;;;;;;;;;;;;;;;9.33;56.76;97772.62;4514352;31;34396;-86
2022/12/10 09:03:20;;;;;;;;;;;;;;;10.19;54.29;97765.19;4512645;31;34139;-88
2022/12/10 09:05:47;;;;;;;;;;;;;;;10.88;52.57;97768.87;4514154;31;33350;-88
2022/12/10 09:08:14;;;;;;;;;;;;;;;10.71;52.88;97771.62;4515953;31;34320;-89
2022/12/10 09:10:46;;;;;;;;;;;;;;;10.56;53.33;97776.97;4514346;31;34464;-91
2022/12/10 09:13:15;;;;;;;;;;;;;;;10.88;52.53;97780.09;4515302;31;33443;-92
2022/12/10 09:15:48;;;;;;;;;;;;;;;10.84;52.48;97769.78;4513908;31;33283;-87
2022/12/10 09:18:15;;;;;;;;;;;;;;;9.91;54.59;97774.87;4514577;31;33979;-87
2022/12/10 09:20:43;;;;;;;;;;;;;;;10.36;53.87;97769.38;4512568;31;34271;-87
2022/12/10 09:23:10;;;;;;;;;;;;;;;9.92;54.65;97758.44;4498625;31;34339;-89
2022/12/10 09:25:37;;;;;;;;;;;;;;;9.36;56.44;97758.84;4514596;31;32983;-88
2022/12/10 09:28:04;;;;;;;;;;;;;;;9.23;56.92;97761.44;4513798;31;34159;-90
2022/12/10 09:30:31;;;;;;;;;;;;;;;9.61;56.32;97765.56;4514246;31;35358;-88
2022/12/10 09:33:00;;;;;;;;;;;;;;;9.19;57.25;97764.91;4512042;31;34289;-90
2022/12/10 09:35:27;;;;;;;;;;;;;;;8.86;58.54;97765.03;4514064;31;33059;-89
2022/12/10 09:37:54;;;;;;;;;;;;;;;8.47;60.12;97766.84;4514236;31;34586;-89
2022/12/10 09:40:24;;;;;;;;;;;;;;;8.94;58.31;97753.84;4497708;31;34013;-89
2022/12/10 09:43:10;;;;;;;;;;;;;;;8.84;58.82;97746.09;4484368;31;32939;-89
2022/12/10 09:45:54;;;;;;;;;;;;;;;8.68;59.46;97737.53;4498604;31;34223;-89
2022/12/10 09:48:41;;;;;;;;;;;;;;;8.92;58.89;97721.09;4497180;31;34246;-89
2022/12/10 09:51:18;;;;;;;;;;;;;;;7.64;62.40;97717.78;4499519;31;34399;-91
2022/12/10 09:53:46;;;;;;;;;;;;;;;8.70;59.75;97710.81;4499373;31;33188;-89
2022/12/10 09:56:16;;;;;;;;;;;;;;;8.58;59.58;97697.94;4514163;31;33281;-89
2022/12/10 09:58:43;;;;;;;;;;;;;;;9.11;58.13;97683.09;4515940;31;33801;-90
2022/12/10 10:01:12;;;;;;;;;;;;;;;7.93;61.35;97689.44;4530256;31;33852;-88
2022/12/10 10:03:40;;;;;;;;;;;;;;;8.03;61.53;97703.16;4504911;31;35122;-88
2022/12/10 10:06:12;;;;;;;;;;;;;;;8.80;59.69;97695.31;4498342;31;33090;-91
2022/12/10 10:08:39;;;;;;;;;;;;;;;9.11;58.27;97693.44;4513938;31;34949;-89
2022/12/10 10:11:09;;;;;;;;;;;;;;;8.09;61.48;97703.16;4513616;31;34295;-92
2022/12/10 10:13:38;;;;;;;;;;;;;;;8.74;59.73;97694.44;4508472;31;35006;-86
2022/12/10 10:16:29;;;;;;;;;;;;;;;9.09;58.48;97692.56;4509973;31;34314;-92
2022/12/10 10:18:58;;;;;;;;;;;;;;;8.57;59.90;97693.66;4506103;31;34037;-91
2022/12/10 10:21:27;;;;;;;;;;;;;;;9.06;58.52;97682.28;4514058;31;34515;-90
2022/12/10 10:23:54;;;;;;;;;;;;;;;8.68;58.85;97684.16;4515958;31;35011;-91
2022/12/10 10:26:23;;;;;;;;;;;;;;;9.35;57.40;97695.00;4515866;31;32936;-89
2022/12/10 10:29:02;;;;;;;;;;;;;;;9.33;56.86;97701.94;4506102;31;35669;-93
2022/12/10 10:31:30;;;;;;;;;;;;;;;9.79;56.23;97717.16;4512551;31;35213;-92
2022/12/10 10:34:02;;;;;;;;;;;;;;;10.22;54.87;97713.31;4513818;31;34763;-90
2022/12/10 10:36:34;;;;;;;;;;;;;;;9.87;55.95;97720.53;4503133;31;32969;-88
2022/12/10 10:39:16;;;;;;;;;;;;;;;10.63;53.62;97716.41;4512639;31;33938;-92
2022/12/10 10:41:44;;;;;;;;;;;;;;;10.59;53.94;97705.22;4515767;31;35040;-91
2022/12/10 10:44:21;;;;;;;;;;;;;;;11.26;52.17;97694.94;4515899;31;34868;-92
2022/12/10 10:46:49;;;;;;;;;;;;;;;10.70;53.45;97710.31;4486064;31;34348;-93
2022/12/10 10:49:24;;;;;;;;;;;;;;;9.48;56.89;97715.63;4507558;31;33751;-91
2022/12/10 10:51:59;;;;;;;;;;;;;;;9.73;56.00;97713.72;4515731;31;34300;-92
2022/12/10 10:54:39;;;;;;;;;;;;;;;10.06;55.10;97711.75;4501248;31;34064;-87
2022/12/10 10:57:11;;;;;;;;;;;;;;;10.55;53.90;97703.53;4516105;31;33391;-89
2022/12/10 10:59:38;;;;;;;;;;;;;;;10.95;52.85;97693.59;4516100;31;34817;-91
2022/12/10 11:02:32;;;;;;;;;;;;;;;10.90;52.85;97689.31;4516316;31;34279;-87
2022/12/10 11:05:04;;;;;;;;;;;;;;;10.78;53.21;97679.09;4512211;31;35008;-92
2022/12/10 11:07:33;;;;;;;;;;;;;;;11.06;52.08;97675.31;4517521;31;34183;-88
2022/12/10 11:10:00;;;;;;;;;;;;;;;10.53;53.99;97679.41;4514636;31;34923;-88
2022/12/10 11:12:35;;;;;;;;;;;;;;;10.74;53.51;97674.84;4515168;31;35828;-91
2022/12/10 11:15:21;;;;;;;;;;;;;;;9.14;57.37;97681.34;4515669;31;34283;-91
2022/12/10 11:17:50;;;;;;;;;;;;;;;9.94;55.48;97678.22;4513253;31;33443;-90
2022/12/10 11:20:18;;;;;;;;;;;;;;;10.43;54.33;97672.59;4509487;31;34138;-86
2022/12/10 11:22:50;;;;;;;;;;;;;;;10.44;54.25;97671.72;4515480;31;34232;-92
2022/12/10 11:25:19;;;;;;;;;;;;;;;10.41;54.68;97664.81;4503564;31;34994;-85
2022/12/10 11:27:49;;;;;;;;;;;;;;;10.44;54.35;97662.19;4515943;31;33299;-91
2022/12/10 11:30:22;;;;;;;;;;;;;;;10.08;55.57;97660.81;4515584;31;35168;-89
2022/12/10 11:33:13;;;;;;;;;;;;;;;9.90;56.10;97656.66;4509834;31;34448;-91
2022/12/10 11:35:46;;;;;;;;;;;;;;;9.16;58.36;97642.56;4507340;31;34603;-86
2022/12/10 11:38:16;;;;;;;;;;;;;;;9.34;57.55;97634.69;4515221;31;33323;-85
2022/12/10 11:40:49;;;;;;;;;;;;;;;9.35;57.70;97626.03;4515305;31;34889;-86
2022/12/10 11:43:22;;;;;;;;;;;;;;;9.34;58.26;97624.34;4517067;31;34297;-85
2022/12/10 11:46:11;;;;;;;;;;;;;;;10.39;55.05;97611.31;4514733;31;34688;-89
2022/12/10 11:48:41;;;;;;;;;;;;;;;9.68;56.79;97616.31;4512525;31;33193;-86
2022/12/10 11:51:10;;;;;;;;;;;;;;;9.29;58.17;97607.16;4514884;31;34140;-85
2022/12/10 11:54:01;;;;;;;;;;;;;;;9.03;59.10;97600.41;4513825;31;34080;-84
2022/12/10 11:56:31;;;;;;;;;;;;;;;9.47;58.02;97600.09;4482540;31;34191;-85
2022/12/10 11:59:02;;;;;;;;;;;;;;;9.06;59.34;97599.56;4515122;31;33405;-92
2022/12/10 12:01:32;;;;;;;;;;;;;;;9.66;57.93;97602.50;4515078;31;34916;-85
2022/12/10 12:04:05;;;;;;;;;;;;;;;9.30;58.46;97595.94;4514734;31;34033;-91
2022/12/10 12:06:40;;;;;;;;;;;;;;;9.14;58.49;97596.03;4507594;31;34090;-84
2022/12/10 12:09:25;;;;;;;;;;;;;;;9.08;58.93;97596.06;4501518;31;32774;-86
2022/12/10 12:12:11;;;;;;;;;;;;;;;8.23;61.32;97607.66;4515354;31;33910;-89
2022/12/10 12:14:58;;;;;;;;;;;;;;;8.75;59.91;97592.84;4512989;31;35251;-89
2022/12/10 12:17:52;;;;;;;;;;;;;;;8.77;60.28;97597.97;4513675;31;34094;-83
2022/12/10 12:20:39;;;;;;;;;;;;;;;9.07;58.47;97591.78;4512813;31;33065;-91
2022/12/10 12:23:30;;;;;;;;;;;;;;;9.31;58.33;97582.12;4514869;31;32527;-84
2022/12/10 12:26:00;;;;;;;;;;;;;;;8.52;60.13;97584.31;4485027;31;34961;-90
2022/12/10 12:28:37;;;;;;;;;;;;;;;8.43;61.27;97581.78;4513943;31;34278;-82
2022/12/10 12:31:12;;;;;;;;;;;;;;;9.00;59.56;97578.03;4513728;31;34419;-82
2022/12/10 12:33:41;;;;;;;;;;;;;;;8.50;61.32;97586.06;4512052;31;34077;-82
2022/12/10 12:36:19;;;;;;;;;;;;;;;8.71;59.57;97575.63;4513867;31;34155;-83
2022/12/10 12:38:55;;;;;;;;;;;;;;;8.59;60.31;97572.22;4513852;31;34225;-82
2022/12/10 12:41:29;;;;;;;;;;;;;;;9.25;58.38;97576.13;4513838;31;33177;-83
2022/12/10 12:44:15;;;;;;;;;;;;;;;9.42;57.53;97575.97;4519030;31;34301;-82
2022/12/10 12:46:43;;;;;;;;;;;;;;;9.39;57.38;97575.16;4514742;31;34070;-82
2022/12/10 12:49:26;;;;;;;;;;;;;;;8.22;60.93;97586.13;4514904;31;34523;-82
2022/12/10 12:51:59;;;;;;;;;;;;;;;8.53;60.65;97586.06;4514992;31;34271;-86
2022/12/10 12:54:26;;;;;;;;;;;;;;;9.43;57.97;97582.00;4514516;31;33821;-83
2022/12/10 12:56:53;;;;;;;;;;;;;;;10.14;56.07;97583.06;4514856;31;34151;-83
2022/12/10 12:59:29;;;;;;;;;;;;;;;8.95;59.16;97589.28;4514901;31;34129;-84
2022/12/10 13:02:12;;;;;;;;;;;;;;;9.11;58.61;97593.47;4502961;31;33693;-85
2022/12/10 13:04:39;;;;;;;;;;;;;;;9.21;58.33;97602.03;4512103;31;34150;-86
2022/12/10 13:07:13;;;;;;;;;;;;;;;9.58;57.29;97609.50;4513475;31;34336;-84
2022/12/10 13:09:43;;;;;;;;;;;;;;;9.83;55.83;97607.56;4514762;31;34131;-82
2022/12/10 13:12:14;;;;;;;;;;;;;;;9.66;56.87;97616.34;4513491;31;34218;-82